createdAt,value
2019-05-03T00:00:31.927Z,0.00
2019-05-03T00:01:32.168Z,0.00
2019-05-03T00:02:32.182Z,0.00
2019-05-03T00:03:32.003Z,0.00
2019-05-03T00:04:31.589Z,0.00
2019-05-03T00:05:32.316Z,0.00
2019-05-03T00:06:32.003Z,0.00
2019-05-03T00:07:31.717Z,0.00
2019-05-03T00:08:30.184Z,0.00
2019-05-03T00:09:31.934Z,0.00
2019-05-03T00:10:31.770Z,0.00
2019-05-03T00:11:30.125Z,0.00
2019-05-03T00:12:30.108Z,0.00
2019-05-03T00:13:30.087Z,0.00
2019-05-03T00:14:30.067Z,0.00
2019-05-03T00:15:32.225Z,0.00
2019-05-03T00:16:30.028Z,0.00
2019-05-03T00:17:30.033Z,0.00
2019-05-03T00:18:29.989Z,0.00
2019-05-03T00:19:29.971Z,0.00
2019-05-03T00:20:29.955Z,0.00
2019-05-03T00:21:29.971Z,0.00
2019-05-03T00:22:29.913Z,0.00
2019-05-03T00:23:29.896Z,0.00
2019-05-03T00:24:31.920Z,0.00
2019-05-03T00:25:29.853Z,0.00
2019-05-03T00:26:31.710Z,0.00
2019-05-03T00:27:29.817Z,0.00
2019-05-03T00:28:29.798Z,0.00
2019-05-03T00:29:29.777Z,0.00
2019-05-03T00:30:31.840Z,0.00
2019-05-03T00:31:31.778Z,0.00
2019-05-03T00:32:29.722Z,0.00
2019-05-03T00:33:31.670Z,0.00
2019-05-03T00:34:29.680Z,0.00
2019-05-03T00:35:29.661Z,0.00
2019-05-03T00:36:29.645Z,0.00
2019-05-03T00:37:29.625Z,0.00
2019-05-03T00:38:29.604Z,0.00
2019-05-03T00:39:29.585Z,0.00
2019-05-03T00:40:29.567Z,0.00
2019-05-03T00:41:29.548Z,0.00
2019-05-03T00:42:29.526Z,0.00
2019-05-03T00:43:29.509Z,0.00
2019-05-03T00:44:31.594Z,0.00
2019-05-03T00:45:31.497Z,0.00
2019-05-03T00:46:29.449Z,0.00
2019-05-03T00:47:29.429Z,0.00
2019-05-03T00:48:29.410Z,0.00
2019-05-03T00:49:29.390Z,0.00
2019-05-03T00:50:29.371Z,0.00
2019-05-03T00:51:29.352Z,0.00
2019-05-03T00:52:29.334Z,0.00
2019-05-03T00:53:29.313Z,0.00
2019-05-03T00:54:29.298Z,0.00
2019-05-03T00:55:29.276Z,0.00
2019-05-03T00:56:29.256Z,0.00
2019-05-03T00:57:29.236Z,0.00
2019-05-03T00:58:29.214Z,0.00
2019-05-03T00:59:29.200Z,0.00
2019-05-03T01:00:29.176Z,0.00
2019-05-03T01:01:29.157Z,0.00
2019-05-03T01:02:29.138Z,0.00
2019-05-03T01:03:29.120Z,0.00
2019-05-03T01:04:29.101Z,0.00
2019-05-03T01:05:29.080Z,0.00
2019-05-03T01:06:29.059Z,0.00
2019-05-03T01:07:29.042Z,0.00
2019-05-03T01:08:29.022Z,0.00
2019-05-03T01:09:29.002Z,0.00
2019-05-03T01:10:28.982Z,0.00
2019-05-03T01:11:28.963Z,0.00
2019-05-03T01:12:28.943Z,0.00
2019-05-03T01:13:28.930Z,0.00
2019-05-03T01:14:28.926Z,0.00
2019-05-03T01:16:28.913Z,0.00
2019-05-03T01:17:28.886Z,0.00
2019-05-03T01:18:28.866Z,0.00
2019-05-03T01:19:28.855Z,0.00
2019-05-03T01:20:28.834Z,0.00
2019-05-03T01:21:28.813Z,0.00
2019-05-03T01:22:51.768Z,0.00
2019-05-03T01:23:28.769Z,0.00
2019-05-03T01:24:28.753Z,0.00
2019-05-03T01:25:32.544Z,0.00
2019-05-03T01:26:28.712Z,0.00
2019-05-03T01:27:28.693Z,0.00
2019-05-03T01:28:49.674Z,0.00
2019-05-03T01:29:28.657Z,0.00
2019-05-03T01:30:28.634Z,0.00
2019-05-03T01:31:28.612Z,0.00
2019-05-03T01:32:28.596Z,0.00
2019-05-03T01:33:28.578Z,0.00
2019-05-03T01:34:49.568Z,0.00
2019-05-03T01:35:28.536Z,0.00
2019-05-03T01:36:28.522Z,0.00
2019-05-03T01:37:28.504Z,0.00
2019-05-03T01:38:28.480Z,0.00
2019-05-03T01:39:28.458Z,0.00
2019-05-03T01:40:49.443Z,0.00
2019-05-03T01:41:28.424Z,0.00
2019-05-03T01:42:28.400Z,0.00
2019-05-03T01:43:28.380Z,0.00
2019-05-03T01:44:28.366Z,0.00
2019-05-03T01:45:28.342Z,0.00
2019-05-03T01:46:49.333Z,0.00
2019-05-03T01:47:28.306Z,0.00
2019-05-03T01:48:28.286Z,0.00
2019-05-03T01:49:28.271Z,0.00
2019-05-03T01:50:28.247Z,0.00
2019-05-03T01:51:28.228Z,0.00
2019-05-03T01:52:49.220Z,0.00
2019-05-03T01:53:28.192Z,0.00
2019-05-03T01:54:28.164Z,0.00
2019-05-03T01:55:28.146Z,0.00
2019-05-03T01:56:28.131Z,0.00
2019-05-03T01:57:28.118Z,0.00
2019-05-03T01:58:49.093Z,0.00
2019-05-03T01:59:28.069Z,0.00
2019-05-03T02:00:28.049Z,0.00
2019-05-03T02:01:28.029Z,0.00
2019-05-03T02:02:28.009Z,0.00
2019-05-03T02:03:27.991Z,0.00
2019-05-03T02:04:48.974Z,0.00
2019-05-03T02:05:27.949Z,0.00
2019-05-03T02:06:27.932Z,0.00
2019-05-03T02:07:27.914Z,0.00
2019-05-03T02:08:27.898Z,0.00
2019-05-03T02:09:27.879Z,0.00
2019-05-03T02:10:48.862Z,0.00
2019-05-03T02:11:27.839Z,0.00
2019-05-03T02:12:27.813Z,0.00
2019-05-03T02:13:27.799Z,0.00
2019-05-03T02:14:27.781Z,0.00
2019-05-03T02:15:27.757Z,0.00
2019-05-03T02:16:48.740Z,0.00
2019-05-03T02:17:27.715Z,0.00
2019-05-03T02:18:27.694Z,0.00
2019-05-03T02:19:27.676Z,0.00
2019-05-03T02:20:27.661Z,0.00
2019-05-03T02:21:27.639Z,0.00
2019-05-03T02:22:48.623Z,0.00
2019-05-03T02:23:27.598Z,0.00
2019-05-03T02:24:27.581Z,0.00
2019-05-03T02:25:27.557Z,0.00
2019-05-03T02:26:27.537Z,0.00
2019-05-03T02:27:27.519Z,0.00
2019-05-03T02:28:48.507Z,0.00
2019-05-03T02:29:27.480Z,0.00
2019-05-03T02:30:27.464Z,0.00
2019-05-03T02:31:27.452Z,0.00
2019-05-03T02:32:27.427Z,0.00
2019-05-03T02:33:27.408Z,0.00
2019-05-03T02:34:48.391Z,0.00
2019-05-03T02:35:27.360Z,0.00
2019-05-03T02:36:27.367Z,0.00
2019-05-03T02:37:27.341Z,0.00
2019-05-03T02:38:27.305Z,0.00
2019-05-03T02:39:27.287Z,0.00
2019-05-03T02:40:48.270Z,0.00
2019-05-03T02:41:27.249Z,0.00
2019-05-03T02:42:27.224Z,0.00
2019-05-03T02:43:27.209Z,0.00
2019-05-03T02:44:27.193Z,0.00
2019-05-03T02:45:27.178Z,0.00
2019-05-03T02:46:48.150Z,0.00
2019-05-03T02:47:27.126Z,0.00
2019-05-03T02:48:27.117Z,0.00
2019-05-03T02:49:27.091Z,0.00
2019-05-03T02:50:27.068Z,0.00
2019-05-03T02:51:27.047Z,0.00
2019-05-03T02:52:48.036Z,0.00
2019-05-03T02:53:27.012Z,0.00
2019-05-03T02:54:27.320Z,0.00
2019-05-03T02:55:26.971Z,0.00
2019-05-03T02:56:26.952Z,0.00
2019-05-03T02:57:26.926Z,0.00
2019-05-03T02:58:47.921Z,0.00
2019-05-03T02:59:26.894Z,0.00
2019-05-03T03:00:26.869Z,0.00
2019-05-03T03:01:26.913Z,0.00
2019-05-03T03:02:26.830Z,0.00
2019-05-03T03:03:26.820Z,0.00
2019-05-03T03:04:47.810Z,0.00
2019-05-03T03:05:26.774Z,0.00
2019-05-03T03:06:27.048Z,0.00
2019-05-03T03:07:26.737Z,0.00
2019-05-03T03:08:26.716Z,0.00
2019-05-03T03:09:26.691Z,0.00
2019-05-03T03:10:47.678Z,0.00
2019-05-03T03:11:26.653Z,0.00
2019-05-03T03:12:26.634Z,0.00
2019-05-03T03:13:26.608Z,0.00
2019-05-03T03:14:26.591Z,0.00
2019-05-03T03:15:26.605Z,0.00
2019-05-03T03:16:47.559Z,0.00
2019-05-03T03:17:26.540Z,0.00
2019-05-03T03:18:26.515Z,0.00
2019-05-03T03:19:26.488Z,0.00
2019-05-03T03:20:26.474Z,0.00
2019-05-03T03:21:26.469Z,0.00
2019-05-03T03:22:47.433Z,0.00
2019-05-03T03:23:26.555Z,0.00
2019-05-03T03:24:26.389Z,0.00
2019-05-03T03:25:26.391Z,0.00
2019-05-03T03:26:37.537Z,0.00
2019-05-03T03:27:26.337Z,0.00
2019-05-03T03:28:47.327Z,0.00
2019-05-03T03:29:26.301Z,0.00
2019-05-03T03:30:28.922Z,0.00
2019-05-03T03:31:28.259Z,0.00
2019-05-03T03:32:29.197Z,0.00
2019-05-03T03:33:28.150Z,0.00
2019-05-03T03:34:54.600Z,0.00
2019-05-03T03:35:29.968Z,0.00
2019-05-03T03:36:48.601Z,0.00
2019-05-03T03:37:26.206Z,0.00
2019-05-03T03:38:26.321Z,0.00
2019-05-03T03:39:26.426Z,0.00
2019-05-03T03:40:47.079Z,0.00
2019-05-03T03:41:26.057Z,0.00
2019-05-03T03:42:26.046Z,0.00
2019-05-03T03:43:26.127Z,0.00
2019-05-03T03:44:26.008Z,0.00
2019-05-03T03:45:25.975Z,0.00
2019-05-03T03:46:46.965Z,0.00
2019-05-03T03:47:27.285Z,0.00
2019-05-03T03:48:26.516Z,0.00
2019-05-03T03:49:26.395Z,0.00
2019-05-03T03:50:26.147Z,0.00
2019-05-03T03:51:26.485Z,0.00
2019-05-03T03:52:46.841Z,0.00
2019-05-03T03:53:26.556Z,0.00
2019-05-03T03:54:26.139Z,0.00
2019-05-03T03:55:26.570Z,0.00
2019-05-03T03:56:25.768Z,0.00
2019-05-03T03:57:25.983Z,0.00
2019-05-03T03:58:46.717Z,0.00
2019-05-03T03:59:26.595Z,0.00
2019-05-03T04:00:26.016Z,0.00
2019-05-03T04:01:26.669Z,0.00
2019-05-03T04:02:26.387Z,0.00
2019-05-03T04:03:26.246Z,0.00
2019-05-03T04:04:46.601Z,0.00
2019-05-03T04:05:25.792Z,0.00
2019-05-03T04:06:26.840Z,0.00
2019-05-03T04:07:26.174Z,0.00
2019-05-03T04:08:25.518Z,0.00
2019-05-03T04:09:25.949Z,0.00
2019-05-03T04:10:46.579Z,0.00
2019-05-03T04:11:25.974Z,0.00
2019-05-03T04:12:26.502Z,0.00
2019-05-03T04:13:25.720Z,0.00
2019-05-03T04:14:25.559Z,0.00
2019-05-03T04:15:26.207Z,0.00
2019-05-03T04:16:46.362Z,0.00
2019-05-03T04:17:26.139Z,0.00
2019-05-03T04:18:25.696Z,0.00
2019-05-03T04:19:25.304Z,0.00
2019-05-03T04:20:25.858Z,0.00
2019-05-03T04:21:25.725Z,0.00
2019-05-03T04:22:46.241Z,5.63
2019-05-03T04:23:26.395Z,5.63
2019-05-03T04:24:25.867Z,5.63
2019-05-03T04:25:26.282Z,5.63
2019-05-03T04:26:29.580Z,5.63
2019-05-03T04:27:27.600Z,5.63
2019-05-03T04:28:46.129Z,5.63
2019-05-03T04:29:25.481Z,5.63
2019-05-03T04:30:25.696Z,5.63
2019-05-03T04:31:26.192Z,5.63
2019-05-03T04:32:28.762Z,5.63
2019-05-03T04:33:26.962Z,5.63
2019-05-03T04:34:46.003Z,5.63
2019-05-03T04:35:26.556Z,5.63
2019-05-03T04:36:26.221Z,11.25
2019-05-03T04:37:26.628Z,11.25
2019-05-03T04:38:25.786Z,11.25
2019-05-03T04:39:25.600Z,11.25
2019-05-03T04:40:45.897Z,11.25
2019-05-03T04:41:26.983Z,11.25
2019-05-03T04:42:25.627Z,11.25
2019-05-03T04:43:26.391Z,16.88
2019-05-03T04:44:25.997Z,16.88
2019-05-03T04:45:25.543Z,16.88
2019-05-03T04:46:46.525Z,16.88
2019-05-03T04:47:26.305Z,16.88
2019-05-03T04:48:25.327Z,16.88
2019-05-03T04:49:26.242Z,16.88
2019-05-03T04:50:25.455Z,16.88
2019-05-03T04:51:25.814Z,16.88
2019-05-03T04:52:46.395Z,22.50
2019-05-03T04:53:25.956Z,22.50
2019-05-03T04:54:25.370Z,22.50
2019-05-03T04:55:26.590Z,22.50
2019-05-03T04:56:25.920Z,22.50
2019-05-03T04:57:36.691Z,22.50
2019-05-03T04:58:45.935Z,22.50
2019-05-03T04:59:25.425Z,22.50
2019-05-03T05:00:25.684Z,22.50
2019-05-03T05:01:26.122Z,22.50
2019-05-03T05:02:26.353Z,22.50
2019-05-03T05:03:26.480Z,28.13
2019-05-03T05:04:46.714Z,28.13
2019-05-03T05:05:26.189Z,28.13
2019-05-03T05:06:25.818Z,28.13
2019-05-03T05:07:26.192Z,28.13
2019-05-03T05:08:25.451Z,28.13
2019-05-03T05:09:25.898Z,28.13
2019-05-03T05:10:46.556Z,28.13
2019-05-03T05:11:26.341Z,28.13
2019-05-03T05:12:25.440Z,33.75
2019-05-03T05:13:25.204Z,33.75
2019-05-03T05:14:25.845Z,33.75
2019-05-03T05:15:26.458Z,33.75
2019-05-03T05:16:46.520Z,33.75
2019-05-03T05:17:26.293Z,33.75
2019-05-03T05:18:26.357Z,33.75
2019-05-03T05:19:25.482Z,33.75
2019-05-03T05:20:25.640Z,33.75
2019-05-03T05:21:32.969Z,33.75
2019-05-03T05:23:17.845Z,39.38
2019-05-03T05:24:17.618Z,39.38
2019-05-03T05:26:11.034Z,39.38
2019-05-03T05:27:10.672Z,45.00
2019-05-03T05:29:05.338Z,45.00
2019-05-03T05:30:04.603Z,39.38
2019-05-03T05:31:57.611Z,45.00
2019-05-03T05:32:57.343Z,45.00
2019-05-03T05:34:50.942Z,45.00
2019-05-03T05:35:51.006Z,45.00
2019-05-03T05:36:51.211Z,45.00
2019-05-03T05:37:50.586Z,45.00
2019-05-03T05:38:50.582Z,39.38
2019-05-03T05:39:50.578Z,50.63
2019-05-03T05:40:50.815Z,45.00
2019-05-03T05:41:50.855Z,45.00
2019-05-03T05:42:50.757Z,39.38
2019-05-03T05:43:50.764Z,45.00
2019-05-03T05:44:50.742Z,50.63
2019-05-03T05:45:50.464Z,50.63
2019-05-03T05:46:50.669Z,50.63
2019-05-03T05:47:50.387Z,50.63
2019-05-03T05:48:50.377Z,50.63
2019-05-03T05:49:50.347Z,45.00
2019-05-03T05:50:50.327Z,45.00
2019-05-03T05:51:50.308Z,39.38
2019-05-03T05:52:50.288Z,28.13
2019-05-03T05:53:50.268Z,39.38
2019-05-03T05:54:50.246Z,45.00
2019-05-03T05:55:50.229Z,45.00
2019-05-03T05:56:50.210Z,45.00
2019-05-03T05:58:01.985Z,45.00
2019-05-03T05:58:50.167Z,50.63
2019-05-03T05:59:50.155Z,50.63
2019-05-03T06:00:50.128Z,56.25
2019-05-03T06:01:50.128Z,61.88
2019-05-03T06:02:50.094Z,73.13
2019-05-03T06:03:50.067Z,73.13
2019-05-03T06:04:50.049Z,73.13
2019-05-03T06:05:50.027Z,56.25
2019-05-03T06:06:50.010Z,56.25
2019-05-03T06:07:49.987Z,56.25
2019-05-03T06:08:49.968Z,56.25
2019-05-03T06:09:49.949Z,61.88
2019-05-03T06:10:49.926Z,61.88
2019-05-03T06:11:49.908Z,61.88
2019-05-03T06:12:49.889Z,50.63
2019-05-03T06:13:49.871Z,45.00
2019-05-03T06:14:49.849Z,45.00
2019-05-03T06:15:49.829Z,50.63
2019-05-03T06:16:49.812Z,39.38
2019-05-03T06:17:49.794Z,39.38
2019-05-03T06:18:49.769Z,39.38
2019-05-03T06:19:49.750Z,39.38
2019-05-03T06:20:49.735Z,39.38
2019-05-03T06:21:49.711Z,39.38
2019-05-03T06:22:49.688Z,39.38
2019-05-03T06:23:49.671Z,45.00
2019-05-03T06:24:49.655Z,45.00
2019-05-03T06:25:49.629Z,39.38
2019-05-03T06:26:49.609Z,45.00
2019-05-03T06:27:49.588Z,56.25
2019-05-03T06:28:49.570Z,61.88
2019-05-03T06:29:49.573Z,61.88
2019-05-03T06:30:49.528Z,56.25
2019-05-03T06:31:49.508Z,56.25
2019-05-03T06:32:49.490Z,50.63
2019-05-03T06:33:52.325Z,56.25
2019-05-03T06:34:49.452Z,45.00
2019-05-03T06:35:49.431Z,56.25
2019-05-03T06:36:51.418Z,56.25
2019-05-03T06:37:49.391Z,56.25
2019-05-03T06:38:49.373Z,61.88
2019-05-03T06:39:49.355Z,61.88
2019-05-03T06:40:49.332Z,67.50
2019-05-03T06:41:49.310Z,67.50
2019-05-03T06:42:54.608Z,67.50
2019-05-03T06:43:49.272Z,67.50
2019-05-03T06:44:49.254Z,61.88
2019-05-03T06:45:50.542Z,61.88
2019-05-03T06:46:49.217Z,61.88
2019-05-03T06:47:50.097Z,50.63
2019-05-03T06:48:49.178Z,61.88
2019-05-03T06:49:49.153Z,61.88
2019-05-03T06:50:49.133Z,61.88
2019-05-03T06:51:49.942Z,67.50
2019-05-03T06:52:49.094Z,61.88
2019-05-03T06:53:50.620Z,67.50
2019-05-03T06:54:49.053Z,67.50
2019-05-03T06:55:49.034Z,67.50
2019-05-03T06:56:49.034Z,73.13
2019-05-03T06:57:49.663Z,61.88
2019-05-03T06:58:48.978Z,73.13
2019-05-03T06:59:48.957Z,78.75
2019-05-03T07:00:48.941Z,78.75
2019-05-03T07:01:48.915Z,101.25
2019-05-03T07:02:48.920Z,112.50
2019-05-03T07:03:48.876Z,123.75
2019-05-03T07:04:48.859Z,129.38
2019-05-03T07:05:48.842Z,123.75
2019-05-03T07:06:48.817Z,106.88
2019-05-03T07:07:48.805Z,95.63
2019-05-03T07:08:48.779Z,112.50
2019-05-03T07:09:48.757Z,106.88
2019-05-03T07:10:48.770Z,112.50
2019-05-03T07:11:48.719Z,123.75
2019-05-03T07:12:48.699Z,112.50
2019-05-03T07:13:48.678Z,78.75
2019-05-03T07:14:50.464Z,90.00
2019-05-03T07:15:48.640Z,84.38
2019-05-03T07:16:48.625Z,73.13
2019-05-03T07:17:48.600Z,73.13
2019-05-03T07:18:48.640Z,90.00
2019-05-03T07:19:48.562Z,101.25
2019-05-03T07:20:48.543Z,129.38
2019-05-03T07:21:48.525Z,135.00
2019-05-03T07:22:48.505Z,112.50
2019-05-03T07:23:48.486Z,84.38
2019-05-03T07:24:48.470Z,73.13
2019-05-03T07:25:48.445Z,73.13
2019-05-03T07:26:48.428Z,73.13
2019-05-03T07:27:48.410Z,78.75
2019-05-03T07:28:50.055Z,84.38
2019-05-03T07:29:48.370Z,78.75
2019-05-03T07:30:48.352Z,67.50
2019-05-03T07:31:48.331Z,56.25
2019-05-03T07:32:48.309Z,50.63
2019-05-03T07:33:48.302Z,56.25
2019-05-03T07:34:48.272Z,67.50
2019-05-03T07:35:48.257Z,73.13
2019-05-03T07:36:48.239Z,73.13
2019-05-03T07:37:48.211Z,84.38
2019-05-03T07:38:48.194Z,106.88
2019-05-03T07:39:48.174Z,118.13
2019-05-03T07:40:48.161Z,123.75
2019-05-03T07:41:48.135Z,135.00
2019-05-03T07:42:48.117Z,135.00
2019-05-03T07:43:48.104Z,118.13
2019-05-03T07:44:48.078Z,101.25
2019-05-03T07:45:48.058Z,90.00
2019-05-03T07:46:48.038Z,95.63
2019-05-03T07:47:48.020Z,101.25
2019-05-03T07:48:48.000Z,95.63
2019-05-03T07:49:47.979Z,95.63
2019-05-03T07:50:47.959Z,101.25
2019-05-03T07:51:47.952Z,118.13
2019-05-03T07:52:47.923Z,135.00
2019-05-03T07:53:47.905Z,129.38
2019-05-03T07:54:47.884Z,112.50
2019-05-03T07:55:47.864Z,106.88
2019-05-03T07:56:47.848Z,112.50
2019-05-03T07:57:47.858Z,123.75
2019-05-03T07:58:59.417Z,123.75
2019-05-03T07:59:47.786Z,112.50
2019-05-03T08:00:47.779Z,106.88
2019-05-03T08:01:47.747Z,112.50
2019-05-03T08:02:47.731Z,101.25
2019-05-03T08:03:47.720Z,95.63
2019-05-03T08:04:47.693Z,95.63
2019-05-03T08:05:47.676Z,95.63
2019-05-03T08:06:47.651Z,90.00
2019-05-03T08:07:47.633Z,84.38
2019-05-03T08:08:47.613Z,78.75
2019-05-03T08:09:47.605Z,78.75
2019-05-03T08:10:47.579Z,78.75
2019-05-03T08:11:47.568Z,78.75
2019-05-03T08:12:47.551Z,78.75
2019-05-03T08:13:47.530Z,78.75
2019-05-03T08:14:47.498Z,101.25
2019-05-03T08:15:47.478Z,95.63
2019-05-03T08:16:47.464Z,101.25
2019-05-03T08:17:47.437Z,101.25
2019-05-03T08:18:47.430Z,106.88
2019-05-03T08:19:47.400Z,106.88
2019-05-03T08:20:47.383Z,112.50
2019-05-03T08:21:47.361Z,112.50
2019-05-03T08:22:47.347Z,118.13
2019-05-03T08:23:47.337Z,118.13
2019-05-03T08:24:47.303Z,118.13
2019-05-03T08:25:47.285Z,118.13
2019-05-03T08:26:47.266Z,118.13
2019-05-03T08:27:47.249Z,118.13
2019-05-03T08:28:47.237Z,118.13
2019-05-03T08:29:47.207Z,101.25
2019-05-03T08:30:47.187Z,95.63
2019-05-03T08:31:47.176Z,106.88
2019-05-03T08:32:47.150Z,123.75
2019-05-03T08:33:47.131Z,129.38
2019-05-03T08:34:47.110Z,129.38
2019-05-03T08:35:47.094Z,135.00
2019-05-03T08:36:47.072Z,140.63
2019-05-03T08:37:47.065Z,140.63
2019-05-03T08:38:47.046Z,135.00
2019-05-03T08:39:47.016Z,140.63
2019-05-03T08:40:46.996Z,163.13
2019-05-03T08:41:46.976Z,180.00
2019-05-03T08:42:46.956Z,180.00
2019-05-03T08:43:46.938Z,163.13
2019-05-03T08:44:46.928Z,174.38
2019-05-03T08:45:46.898Z,180.00
2019-05-03T08:46:47.301Z,157.50
2019-05-03T08:47:46.863Z,135.00
2019-05-03T08:48:46.845Z,140.63
2019-05-03T08:49:46.830Z,135.00
2019-05-03T08:50:46.804Z,123.75
2019-05-03T08:51:46.786Z,106.88
2019-05-03T08:52:46.769Z,129.38
2019-05-03T08:53:46.750Z,129.38
2019-05-03T08:54:46.734Z,168.75
2019-05-03T08:55:46.721Z,185.63
2019-05-03T08:56:46.692Z,185.63
2019-05-03T08:57:46.672Z,163.13
2019-05-03T08:58:46.651Z,163.13
2019-05-03T08:59:46.637Z,191.25
2019-05-03T09:00:46.617Z,208.13
2019-05-03T09:01:46.596Z,219.38
2019-05-03T09:02:46.579Z,208.13
2019-05-03T09:03:46.561Z,202.50
2019-05-03T09:04:46.540Z,180.00
2019-05-03T09:05:46.640Z,168.75
2019-05-03T09:06:46.502Z,163.13
2019-05-03T09:07:46.484Z,140.63
2019-05-03T09:08:46.482Z,140.63
2019-05-03T09:09:46.444Z,140.63
2019-05-03T09:10:46.427Z,146.25
2019-05-03T09:11:46.408Z,135.00
2019-05-03T09:15:50.839Z,168.75
2019-05-03T09:16:50.781Z,196.88
2019-05-03T09:18:50.252Z,191.25
2019-05-03T09:20:57.893Z,236.25
2019-05-03T09:21:57.813Z,202.50
2019-05-03T09:23:52.278Z,202.50
2019-05-03T09:24:52.137Z,219.38
2019-05-03T09:26:45.495Z,213.75
2019-05-03T09:27:45.495Z,208.13
2019-05-03T09:29:43.073Z,180.00
2019-05-03T09:30:39.567Z,191.25
2019-05-03T09:32:35.029Z,157.50
2019-05-03T09:33:35.676Z,174.38
2019-05-03T09:35:32.798Z,174.38
2019-05-03T09:36:27.195Z,185.63
2019-05-03T09:38:20.844Z,213.75
2019-05-03T09:39:20.784Z,213.75
2019-05-03T09:41:15.016Z,208.13
2019-05-03T09:42:15.410Z,208.13
2019-05-03T09:44:07.563Z,208.13
2019-05-03T09:45:07.411Z,168.75
2019-05-03T09:47:00.914Z,101.25
2019-05-03T09:48:00.843Z,90.00
2019-05-03T09:49:55.691Z,78.75
2019-05-03T09:50:55.607Z,84.38
2019-05-03T09:52:47.369Z,123.75
2019-05-03T09:53:47.139Z,135.00
2019-05-03T09:55:40.810Z,180.00
2019-05-03T09:56:53.365Z,185.63
2019-05-03T09:58:36.452Z,196.88
2019-05-03T09:59:35.013Z,191.25
2019-05-03T10:01:27.315Z,168.75
2019-05-03T10:02:27.119Z,151.88
2019-05-03T10:04:20.664Z,163.13
2019-05-03T10:05:20.460Z,157.50
2019-05-03T10:07:15.307Z,146.25
2019-05-03T10:08:15.779Z,157.50
2019-05-03T10:10:07.313Z,185.63
2019-05-03T10:11:07.131Z,191.25
2019-05-03T10:13:00.628Z,196.88
2019-05-03T10:14:00.424Z,208.13
2019-05-03T10:15:54.915Z,225.00
2019-05-03T10:16:54.743Z,264.38
2019-05-03T10:18:47.496Z,331.88
2019-05-03T10:19:47.123Z,264.38
2019-05-03T10:21:40.518Z,219.38
2019-05-03T10:22:40.399Z,219.38
2019-05-03T10:24:35.107Z,174.38
2019-05-03T10:25:35.713Z,163.13
2019-05-03T10:27:27.243Z,168.75
2019-05-03T10:28:27.050Z,191.25
2019-05-03T10:30:21.637Z,196.88
2019-05-03T10:31:21.385Z,185.63
2019-05-03T10:33:17.035Z,180.00
2019-05-03T10:34:16.707Z,185.63
2019-05-03T10:35:16.691Z,180.00
2019-05-03T10:36:16.676Z,180.00
2019-05-03T10:37:16.654Z,180.00
2019-05-03T10:38:16.634Z,191.25
2019-05-03T10:39:16.623Z,230.63
2019-05-03T10:40:16.663Z,281.25
2019-05-03T10:41:16.637Z,343.13
2019-05-03T10:42:16.561Z,365.63
2019-05-03T10:43:16.545Z,382.50
2019-05-03T10:44:16.561Z,388.13
2019-05-03T10:45:16.512Z,354.38
2019-05-03T10:46:16.500Z,348.75
2019-05-03T10:47:16.696Z,326.25
2019-05-03T10:48:16.451Z,320.63
2019-05-03T10:49:16.433Z,309.38
2019-05-03T10:50:16.422Z,298.13
2019-05-03T10:51:16.396Z,326.25
2019-05-03T10:52:16.380Z,382.50
2019-05-03T10:53:16.362Z,275.63
2019-05-03T10:54:16.343Z,275.63
2019-05-03T10:55:16.327Z,258.75
2019-05-03T10:56:22.689Z,292.50
2019-05-03T10:57:16.292Z,326.25
2019-05-03T10:58:16.277Z,326.25
2019-05-03T10:59:16.254Z,421.88
2019-05-03T11:00:41.569Z,405.00
2019-05-03T11:01:16.220Z,478.13
2019-05-03T11:02:16.198Z,410.63
2019-05-03T11:03:16.183Z,331.88
2019-05-03T11:04:16.196Z,331.88
2019-05-03T11:05:16.162Z,230.63
2019-05-03T11:06:16.129Z,202.50
2019-05-03T11:07:16.113Z,168.75
2019-05-03T11:08:16.094Z,140.63
2019-05-03T11:09:16.081Z,123.75
2019-05-03T11:10:16.059Z,106.88
2019-05-03T11:11:16.044Z,112.50
2019-05-03T11:12:16.028Z,140.63
2019-05-03T11:13:16.013Z,157.50
2019-05-03T11:14:15.988Z,163.13
2019-05-03T11:15:15.970Z,168.75
2019-05-03T11:16:15.952Z,146.25
2019-05-03T11:17:15.933Z,174.38
2019-05-03T11:18:15.916Z,174.38
2019-05-03T11:19:15.904Z,191.25
2019-05-03T11:20:28.257Z,219.38
2019-05-03T11:21:27.870Z,241.88
2019-05-03T11:22:15.848Z,292.50
2019-05-03T11:23:15.829Z,348.75
2019-05-03T11:24:15.812Z,506.25
2019-05-03T11:25:15.793Z,556.88
2019-05-03T11:26:15.777Z,343.13
2019-05-03T11:27:15.758Z,326.25
2019-05-03T11:28:15.750Z,405.00
2019-05-03T11:29:15.979Z,585.00
2019-05-03T11:30:15.833Z,883.13
2019-05-03T11:31:15.687Z,438.75
2019-05-03T11:32:15.693Z,337.50
2019-05-03T11:33:15.653Z,331.88
2019-05-03T11:34:15.639Z,489.38
2019-05-03T11:35:15.620Z,236.25
2019-05-03T11:36:15.601Z,208.13
2019-05-03T11:37:15.584Z,236.25
2019-05-03T11:38:15.567Z,286.88
2019-05-03T11:39:15.553Z,326.25
2019-05-03T11:40:15.822Z,286.88
2019-05-03T11:41:28.830Z,1091.25
2019-05-03T11:42:18.457Z,382.50
2019-05-03T11:43:15.479Z,365.63
2019-05-03T11:44:15.463Z,2058.75
2019-05-03T11:45:15.447Z,2233.13
2019-05-03T11:46:15.428Z,748.13
2019-05-03T11:47:15.412Z,1186.88
2019-05-03T11:48:15.394Z,331.88
2019-05-03T11:49:15.377Z,360.00
2019-05-03T11:50:15.365Z,635.63
2019-05-03T11:51:15.371Z,2131.88
2019-05-03T11:52:16.019Z,1344.38
2019-05-03T11:53:15.313Z,433.13
2019-05-03T11:54:16.610Z,343.13
2019-05-03T11:55:15.920Z,241.88
2019-05-03T11:56:15.261Z,444.38
2019-05-03T11:57:15.791Z,219.38
2019-05-03T11:58:15.232Z,253.13
2019-05-03T11:59:15.211Z,303.75
2019-05-03T12:00:15.201Z,3858.75
2019-05-03T12:01:17.036Z,3785.63
2019-05-03T12:02:15.411Z,3577.50
2019-05-03T12:03:15.563Z,3481.88
2019-05-03T12:04:15.392Z,3628.13
2019-05-03T12:05:15.191Z,3183.75
2019-05-03T12:06:15.633Z,3594.38
2019-05-03T12:07:15.999Z,871.88
2019-05-03T12:08:15.071Z,500.63
2019-05-03T12:09:15.530Z,213.75
2019-05-03T12:10:30.707Z,191.25
2019-05-03T12:11:15.230Z,146.25
2019-05-03T12:12:15.226Z,135.00
2019-05-03T12:13:15.791Z,135.00
2019-05-03T12:14:15.587Z,140.63
2019-05-03T12:15:15.160Z,168.75
2019-05-03T12:16:22.316Z,225.00
2019-05-03T12:17:21.072Z,309.38
2019-05-03T12:18:16.233Z,528.75
2019-05-03T12:19:19.799Z,3847.50
2019-05-03T12:20:18.197Z,3003.75
2019-05-03T12:21:18.078Z,3043.13
2019-05-03T12:22:16.578Z,2941.88
2019-05-03T12:23:16.323Z,3020.63
2019-05-03T12:24:15.902Z,3881.25
2019-05-03T12:25:16.733Z,3183.75
2019-05-03T12:26:17.494Z,3200.63
2019-05-03T12:27:15.055Z,3976.88
2019-05-03T12:28:15.287Z,635.63
2019-05-03T12:29:15.331Z,466.88
2019-05-03T12:30:15.322Z,753.75
2019-05-03T12:31:29.721Z,579.38
2019-05-03T12:32:14.731Z,444.38
2019-05-03T12:33:15.378Z,652.50
2019-05-03T12:34:15.942Z,663.75
2019-05-03T12:35:15.319Z,905.63
2019-05-03T12:36:15.397Z,1141.88
2019-05-03T12:37:15.499Z,4168.13
2019-05-03T12:38:16.501Z,3988.13
2019-05-03T12:39:24.369Z,4083.75
2019-05-03T12:40:15.040Z,2716.88
2019-05-03T12:41:15.088Z,2345.63
2019-05-03T12:42:14.895Z,4083.75
2019-05-03T12:43:15.026Z,4016.25
2019-05-03T12:44:15.252Z,770.63
2019-05-03T12:45:15.257Z,871.88
2019-05-03T12:46:16.713Z,4179.38
2019-05-03T12:47:14.706Z,2773.13
2019-05-03T12:48:15.503Z,2401.88
2019-05-03T12:49:15.521Z,2283.75
2019-05-03T12:50:15.657Z,1783.13
2019-05-03T12:51:15.363Z,337.50
2019-05-03T12:52:16.502Z,315.00
2019-05-03T12:53:15.209Z,708.75
2019-05-03T12:54:15.207Z,3723.75
2019-05-03T12:55:15.387Z,320.63
2019-05-03T12:56:22.574Z,585.00
2019-05-03T12:57:15.485Z,3853.13
2019-05-03T12:58:15.048Z,2902.50
2019-05-03T12:59:15.998Z,331.88
2019-05-03T13:00:15.617Z,337.50
2019-05-03T13:01:15.716Z,309.38
2019-05-03T13:02:15.488Z,3706.88
2019-05-03T13:03:15.229Z,1878.75
2019-05-03T13:04:15.313Z,3436.88
2019-05-03T13:05:15.492Z,500.63
2019-05-03T13:06:14.897Z,2745.00
2019-05-03T13:07:14.849Z,343.13
2019-05-03T13:08:15.276Z,303.75
2019-05-03T13:09:15.962Z,258.75
2019-05-03T13:10:21.165Z,258.75
2019-05-03T13:11:14.219Z,258.75
2019-05-03T13:12:14.734Z,213.75
2019-05-03T13:13:14.635Z,191.25
2019-05-03T13:14:15.717Z,163.13
2019-05-03T13:15:14.492Z,157.50
2019-05-03T13:16:15.327Z,135.00
2019-05-03T13:17:15.232Z,118.13
2019-05-03T13:18:15.707Z,106.88
2019-05-03T13:19:15.182Z,106.88
2019-05-03T13:20:14.163Z,118.13
2019-05-03T13:21:14.079Z,163.13
2019-05-03T13:22:14.069Z,2660.63
2019-05-03T13:23:14.054Z,270.00